createdAt,value
2017-12-21T00:01:22.361Z,38.17
2017-12-21T00:03:48.552Z,43.03
2017-12-21T00:06:14.781Z,40.90
2017-12-21T00:08:40.984Z,38.20
2017-12-21T00:11:07.154Z,41.07
2017-12-21T00:13:33.365Z,45.57
2017-12-21T00:16:00.338Z,40.07
2017-12-21T00:18:26.504Z,38.53
2017-12-21T00:20:52.710Z,40.60
2017-12-21T00:23:18.952Z,40.97
2017-12-21T00:25:45.155Z,43.63
2017-12-21T00:28:11.373Z,43.70
2017-12-21T00:30:37.586Z,36.23
2017-12-21T00:33:03.765Z,40.60
2017-12-21T00:35:29.953Z,36.60
2017-12-21T00:37:56.373Z,35.93
2017-12-21T00:40:22.582Z,37.70
2017-12-21T00:42:48.764Z,43.40
2017-12-21T00:45:15.736Z,35.80
2017-12-21T00:47:41.923Z,31.30
2017-12-21T00:50:08.124Z,37.13
2017-12-21T00:52:35.076Z,30.40
2017-12-21T00:55:01.276Z,32.97
2017-12-21T00:57:27.463Z,31.63
2017-12-21T00:59:53.676Z,31.07
2017-12-21T01:02:19.861Z,27.80
2017-12-21T01:04:46.045Z,23.30
2017-12-21T01:07:12.265Z,25.93
2017-12-21T01:09:38.508Z,27.30
2017-12-21T01:12:04.704Z,22.23
2017-12-21T01:14:30.925Z,25.93
2017-12-21T01:16:57.132Z,25.50
2017-12-21T01:19:23.305Z,25.43
2017-12-21T01:21:49.533Z,23.90
2017-12-21T01:24:16.486Z,22.33
2017-12-21T01:26:42.660Z,20.13
2017-12-21T01:29:08.877Z,24.00
2017-12-21T01:31:35.046Z,19.83
2017-12-21T01:34:01.224Z,20.57
2017-12-21T01:36:27.440Z,16.20
2017-12-21T01:38:53.691Z,20.97
2017-12-21T01:41:20.051Z,21.57
2017-12-21T01:43:47.037Z,22.00
2017-12-21T01:46:13.267Z,19.33
2017-12-21T01:48:39.485Z,18.87
2017-12-21T01:51:06.436Z,17.70
2017-12-21T01:53:32.649Z,21.50
2017-12-21T01:55:59.605Z,21.13
2017-12-21T01:58:26.565Z,18.80
2017-12-21T02:00:53.480Z,19.00
2017-12-21T02:03:21.160Z,18.80
2017-12-21T02:05:48.115Z,21.97
2017-12-21T02:08:14.329Z,20.77
2017-12-21T02:10:40.552Z,15.57
2017-12-21T02:13:06.772Z,15.77
2017-12-21T02:15:32.967Z,16.43
2017-12-21T02:17:59.888Z,15.73
2017-12-21T02:20:26.085Z,17.13
2017-12-21T02:22:52.272Z,16.80
2017-12-21T02:25:18.440Z,16.47
2017-12-21T02:27:44.659Z,14.30
2017-12-21T02:30:10.861Z,17.20
2017-12-21T02:32:37.059Z,17.10
2017-12-21T02:35:03.315Z,14.73
2017-12-21T02:37:29.488Z,15.57
2017-12-21T02:39:55.730Z,15.70
2017-12-21T02:42:22.200Z,14.87
2017-12-21T02:44:48.392Z,14.50
2017-12-21T02:47:14.560Z,12.43
2017-12-21T02:49:40.750Z,16.50
2017-12-21T02:52:06.921Z,14.40
2017-12-21T02:54:33.849Z,15.07
2017-12-21T02:57:01.587Z,16.23
2017-12-21T02:59:27.782Z,20.67
2017-12-21T03:01:53.957Z,14.43
2017-12-21T03:04:20.283Z,15.13
2017-12-21T03:06:46.476Z,14.43
2017-12-21T03:09:12.664Z,14.67
2017-12-21T03:11:38.884Z,13.90
2017-12-21T03:14:05.093Z,15.90
2017-12-21T03:16:31.262Z,14.73
2017-12-21T03:18:57.512Z,15.07
2017-12-21T03:21:24.456Z,15.67
2017-12-21T03:23:50.649Z,11.60
2017-12-21T03:26:16.837Z,11.50
2017-12-21T03:28:43.779Z,11.20
2017-12-21T03:31:09.967Z,12.60
2017-12-21T03:33:36.164Z,13.80
2017-12-21T03:36:03.074Z,10.43
2017-12-21T03:38:29.256Z,12.07
2017-12-21T03:40:57.180Z,10.23
2017-12-21T03:43:27.524Z,10.00
2017-12-21T03:45:53.708Z,9.20
2017-12-21T03:48:19.938Z,11.87
2017-12-21T03:50:46.123Z,10.13
2017-12-21T03:53:12.308Z,8.33
2017-12-21T03:55:38.522Z,8.73
2017-12-21T03:58:04.706Z,9.63
2017-12-21T04:00:30.884Z,9.27
2017-12-21T04:02:57.836Z,8.33
2017-12-21T04:05:24.765Z,7.83
2017-12-21T04:07:50.951Z,7.63
2017-12-21T04:10:17.176Z,9.90
2017-12-21T04:12:43.356Z,18.37
2017-12-21T04:15:09.547Z,8.93
2017-12-21T04:17:35.768Z,14.00
2017-12-21T04:20:01.960Z,9.03
2017-12-21T04:22:28.153Z,8.87
2017-12-21T04:24:54.356Z,11.53
2017-12-21T04:27:21.345Z,12.90
2017-12-21T04:29:47.564Z,10.30
2017-12-21T04:32:13.768Z,9.47
2017-12-21T04:34:40.709Z,15.50
2017-12-21T04:37:06.900Z,9.47
2017-12-21T04:39:33.092Z,10.53
2017-12-21T04:42:02.752Z,13.73
2017-12-21T04:44:31.799Z,13.47
2017-12-21T04:46:58.073Z,10.47
2017-12-21T04:49:24.256Z,11.30
2017-12-21T04:51:50.417Z,13.57
2017-12-21T04:54:16.664Z,12.07
2017-12-21T04:56:42.874Z,13.80
2017-12-21T04:59:09.800Z,12.17
2017-12-21T05:01:36.018Z,12.80
2017-12-21T05:04:02.192Z,12.30
2017-12-21T05:06:29.132Z,15.57
2017-12-21T05:08:56.096Z,13.83
2017-12-21T05:11:23.048Z,13.27
2017-12-21T05:13:49.969Z,17.17
2017-12-21T05:16:16.191Z,15.40
2017-12-21T05:18:44.087Z,15.83
2017-12-21T05:21:10.292Z,13.70
2017-12-21T05:23:36.653Z,16.70
2017-12-21T05:26:02.903Z,13.57
2017-12-21T05:28:29.064Z,18.80
2017-12-21T05:30:56.895Z,18.37
2017-12-21T05:33:23.077Z,16.50
2017-12-21T05:35:49.260Z,17.53
2017-12-21T05:38:16.192Z,19.40
2017-12-21T05:40:42.372Z,20.03
2017-12-21T05:43:09.372Z,19.47
2017-12-21T05:45:35.636Z,20.23
2017-12-21T05:48:01.847Z,16.93
2017-12-21T05:50:28.039Z,22.40
2017-12-21T05:52:54.238Z,23.57
2017-12-21T05:55:20.421Z,19.60
2017-12-21T05:57:46.610Z,18.90
2017-12-21T06:00:13.562Z,18.40
2017-12-21T06:02:40.499Z,17.73
2017-12-21T06:05:08.161Z,17.03
2017-12-21T06:07:34.356Z,20.30
2017-12-21T06:10:00.524Z,22.53
2017-12-21T06:12:26.696Z,22.40
2017-12-21T06:14:53.669Z,23.40
2017-12-21T06:17:19.885Z,25.47
2017-12-21T06:19:46.080Z,21.60
2017-12-21T06:22:12.286Z,24.23
2017-12-21T06:24:38.464Z,20.70
2017-12-21T06:27:05.427Z,18.90
2017-12-21T06:29:32.359Z,23.73
2017-12-21T06:31:59.292Z,22.50
2017-12-21T06:34:25.508Z,22.23
2017-12-21T06:36:51.722Z,22.17
2017-12-21T06:39:17.893Z,22.50
2017-12-21T06:41:44.057Z,20.27
2017-12-21T06:44:11.062Z,20.53
2017-12-21T06:46:37.452Z,18.73
2017-12-21T06:49:04.384Z,19.60
2017-12-21T06:51:30.562Z,18.40
2017-12-21T06:53:56.743Z,21.97
2017-12-21T06:56:22.930Z,21.63
2017-12-21T06:58:49.111Z,18.90
2017-12-21T07:01:16.063Z,21.10
2017-12-21T07:03:42.300Z,18.27
2017-12-21T07:06:08.493Z,21.53
2017-12-21T07:08:34.678Z,18.70
2017-12-21T07:11:01.600Z,20.43
2017-12-21T07:13:27.785Z,22.93
2017-12-21T07:15:53.968Z,22.30
2017-12-21T07:18:20.177Z,24.33
2017-12-21T07:20:46.364Z,24.00
2017-12-21T07:23:13.284Z,21.03
2017-12-21T07:25:39.445Z,27.20
2017-12-21T07:28:07.692Z,20.87
2017-12-21T07:30:35.406Z,25.47
2017-12-21T07:33:05.149Z,27.90
2017-12-21T07:35:31.880Z,28.50
2017-12-21T07:37:58.834Z,29.63
2017-12-21T07:40:26.256Z,30.67
2017-12-21T07:42:52.472Z,29.90
2017-12-21T07:45:18.748Z,28.80
2017-12-21T07:47:44.975Z,30.23
2017-12-21T07:50:11.914Z,27.83
2017-12-21T07:52:38.081Z,29.10
2017-12-21T07:55:04.993Z,32.60
2017-12-21T07:57:31.188Z,37.40
2017-12-21T07:59:57.393Z,30.53
2017-12-21T08:02:24.325Z,31.30
2017-12-21T08:04:50.522Z,29.97
2017-12-21T08:07:16.705Z,25.37
2017-12-21T08:09:43.621Z,22.00
2017-12-21T08:12:09.838Z,20.73
2017-12-21T08:14:36.021Z,16.57
2017-12-21T08:17:02.936Z,18.13
2017-12-21T08:19:29.115Z,18.57
2017-12-21T08:21:56.037Z,19.30
2017-12-21T08:24:22.220Z,14.90
2017-12-21T08:26:48.424Z,15.03
2017-12-21T08:29:15.337Z,16.20
2017-12-21T08:31:41.516Z,15.00
2017-12-21T08:34:08.457Z,16.67
2017-12-21T08:36:35.366Z,15.37
2017-12-21T08:39:01.566Z,15.37
2017-12-21T08:41:28.481Z,16.07
2017-12-21T08:43:54.645Z,17.23
2017-12-21T08:46:20.994Z,12.70
2017-12-21T08:48:47.447Z,14.20
2017-12-21T08:51:13.628Z,14.87
2017-12-21T08:53:40.533Z,15.43
2017-12-21T08:56:06.732Z,12.80
2017-12-21T08:58:33.666Z,13.90
2017-12-21T09:01:00.586Z,11.50
2017-12-21T09:03:26.804Z,10.27
2017-12-21T09:05:52.988Z,10.40
2017-12-21T09:08:19.917Z,9.70
2017-12-21T09:10:46.112Z,10.27
2017-12-21T09:13:12.285Z,12.70
2017-12-21T09:15:38.481Z,9.83
2017-12-21T09:18:04.673Z,10.40
2017-12-21T09:20:31.600Z,10.50
2017-12-21T09:22:57.773Z,10.10
2017-12-21T09:25:23.989Z,13.03
2017-12-21T09:27:50.892Z,12.07
2017-12-21T09:30:17.057Z,13.33
2017-12-21T09:32:43.248Z,11.77
2017-12-21T09:35:09.410Z,19.77
2017-12-21T09:37:35.588Z,15.00
2017-12-21T09:40:02.510Z,12.40
2017-12-21T09:42:28.686Z,12.73
2017-12-21T09:44:54.871Z,10.90
2017-12-21T09:47:21.884Z,11.17
2017-12-21T09:49:48.092Z,12.93
2017-12-21T09:52:15.014Z,17.23
2017-12-21T09:54:41.973Z,19.50
2017-12-21T09:57:08.178Z,11.87
2017-12-21T09:59:34.351Z,15.10
2017-12-21T10:02:01.292Z,17.20
2017-12-21T10:04:27.444Z,12.77
2017-12-21T10:06:53.617Z,10.70
2017-12-21T10:09:19.967Z,12.13
2017-12-21T10:11:46.182Z,9.40
2017-12-21T10:14:12.333Z,11.20
2017-12-21T10:16:38.549Z,11.03
2017-12-21T10:19:04.721Z,10.83
2017-12-21T10:21:30.916Z,10.77
2017-12-21T10:23:57.136Z,9.97
2017-12-21T10:26:23.368Z,11.10
2017-12-21T10:28:49.497Z,13.47
2017-12-21T10:31:15.690Z,11.77
2017-12-21T10:33:42.608Z,9.30
2017-12-21T10:36:08.772Z,14.97
2017-12-21T10:38:34.981Z,8.93
2017-12-21T10:41:01.149Z,9.40
2017-12-21T10:43:28.068Z,9.40
2017-12-21T10:45:54.245Z,9.27
2017-12-21T10:48:21.347Z,12.57
2017-12-21T10:50:47.749Z,15.70
2017-12-21T10:53:13.928Z,9.70
2017-12-21T10:55:40.104Z,5.60
2017-12-21T10:58:07.004Z,6.53
2017-12-21T11:00:33.231Z,5.77
2017-12-21T11:02:59.439Z,7.87
2017-12-21T11:05:25.612Z,5.27
2017-12-21T11:07:51.808Z,7.13
2017-12-21T11:10:18.001Z,7.77
2017-12-21T11:12:45.661Z,6.33
2017-12-21T11:15:12.633Z,5.00
2017-12-21T11:17:39.548Z,6.73
2017-12-21T11:20:05.751Z,6.20
2017-12-21T11:22:31.962Z,5.10
2017-12-21T11:24:58.893Z,13.03
2017-12-21T11:27:25.817Z,9.17
2017-12-21T11:29:52.012Z,9.83
2017-12-21T11:32:18.211Z,7.13
2017-12-21T11:34:45.137Z,5.23
2017-12-21T11:37:11.377Z,7.43
2017-12-21T11:39:37.637Z,9.53
2017-12-21T11:42:04.562Z,8.53
2017-12-21T11:44:30.889Z,17.57
2017-12-21T11:46:57.062Z,9.70
2017-12-21T11:49:24.257Z,9.13
2017-12-21T11:51:50.704Z,13.67
2017-12-21T11:54:16.889Z,8.20
2017-12-21T11:56:43.812Z,9.70
2017-12-21T11:59:10.021Z,10.77
2017-12-21T12:01:36.180Z,6.80
2017-12-21T12:04:02.440Z,8.93
2017-12-21T12:06:28.684Z,11.70
2017-12-21T12:08:54.885Z,21.00
2017-12-21T12:11:21.077Z,18.77
2017-12-21T12:13:47.426Z,13.77
2017-12-21T12:16:13.618Z,15.70
2017-12-21T12:18:39.809Z,14.13
2017-12-21T12:21:06.019Z,10.43
2017-12-21T12:23:32.220Z,13.03
2017-12-21T12:25:58.423Z,16.97
2017-12-21T12:28:26.172Z,10.13
2017-12-21T12:30:52.349Z,15.17
2017-12-21T12:33:19.256Z,20.63
2017-12-21T12:35:45.436Z,19.43
2017-12-21T12:38:12.364Z,15.20
2017-12-21T12:40:38.598Z,17.07
2017-12-21T12:43:04.860Z,13.20
2017-12-21T12:45:31.804Z,17.43
2017-12-21T12:47:58.712Z,11.70
2017-12-21T12:50:24.989Z,16.70
2017-12-21T12:52:51.200Z,17.67
2017-12-21T12:55:17.386Z,22.33
2017-12-21T12:57:44.496Z,27.37
2017-12-21T13:00:10.672Z,20.43
2017-12-21T13:02:36.878Z,25.93
2017-12-21T13:05:03.825Z,26.00
2017-12-21T13:07:30.004Z,26.17
2017-12-21T13:09:56.171Z,31.63
2017-12-21T13:12:22.365Z,30.67
2017-12-21T13:14:48.553Z,20.70
2017-12-21T13:17:14.736Z,24.07
2017-12-21T13:19:40.917Z,23.13
2017-12-21T13:22:07.144Z,21.00
2017-12-21T13:24:33.336Z,16.33
2017-12-21T13:26:59.532Z,17.93
2017-12-21T13:29:25.709Z,17.03
2017-12-21T13:31:51.884Z,20.77
2017-12-21T13:34:18.081Z,20.80
2017-12-21T13:36:44.304Z,16.00
2017-12-21T13:39:10.485Z,14.53
2017-12-21T13:41:36.682Z,17.90
2017-12-21T13:44:02.863Z,16.70
2017-12-21T13:46:29.048Z,12.87
2017-12-21T13:48:55.225Z,15.33
2017-12-21T13:51:22.244Z,15.30
2017-12-21T13:53:48.631Z,24.97
2017-12-21T13:56:14.840Z,15.00
2017-12-21T13:58:41.028Z,14.47
2017-12-21T14:01:07.221Z,16.00
2017-12-21T14:03:34.149Z,24.27
2017-12-21T14:06:00.322Z,12.77
2017-12-21T14:08:27.288Z,20.53
2017-12-21T14:10:54.216Z,11.57
2017-12-21T14:13:21.109Z,20.37
2017-12-21T14:15:47.373Z,8.60
2017-12-21T14:18:13.642Z,16.67
2017-12-21T14:20:40.543Z,11.30
2017-12-21T14:23:06.716Z,10.57
2017-12-21T14:25:33.769Z,23.43
2017-12-21T14:28:00.436Z,11.17
2017-12-21T14:30:26.728Z,21.37
2017-12-21T14:32:52.918Z,13.07
2017-12-21T14:35:19.097Z,12.63
2017-12-21T14:37:46.020Z,15.47
2017-12-21T14:40:12.371Z,12.83
2017-12-21T14:42:38.531Z,15.33
2017-12-21T14:45:05.464Z,22.20
2017-12-21T14:47:31.650Z,14.10
2017-12-21T14:49:57.834Z,14.93
2017-12-21T14:52:24.099Z,16.90
2017-12-21T14:54:51.092Z,12.57
2017-12-21T14:57:17.276Z,20.70
2017-12-21T14:59:44.193Z,10.10
2017-12-21T15:02:10.389Z,14.23
2017-12-21T15:04:36.560Z,13.43
2017-12-21T15:07:02.759Z,11.50
2017-12-21T15:09:29.123Z,10.00
2017-12-21T15:11:56.080Z,19.70
2017-12-21T15:14:22.309Z,11.00
2017-12-21T15:16:48.456Z,15.87
2017-12-21T15:19:14.628Z,21.63
2017-12-21T15:21:41.544Z,13.03
2017-12-21T15:24:07.769Z,9.60
2017-12-21T15:26:33.946Z,16.60
2017-12-21T15:29:00.912Z,20.50
2017-12-21T15:31:28.114Z,16.33
2017-12-21T15:33:54.301Z,8.97
2017-12-21T15:36:20.492Z,13.10
2017-12-21T15:38:46.812Z,16.07
2017-12-21T15:41:13.008Z,21.20
2017-12-21T15:43:39.180Z,10.73
2017-12-21T15:46:05.407Z,13.17
2017-12-21T15:48:31.613Z,18.77
2017-12-21T15:50:57.795Z,6.73
2017-12-21T15:53:24.918Z,7.70
2017-12-21T15:55:51.120Z,11.97
2017-12-21T15:58:17.317Z,13.40
2017-12-21T16:00:43.565Z,11.30
2017-12-21T16:03:10.485Z,16.13
2017-12-21T16:05:36.656Z,17.00
2017-12-21T16:08:03.608Z,8.70
2017-12-21T16:10:29.785Z,16.17
2017-12-21T16:12:55.993Z,14.30
2017-12-21T16:15:22.392Z,14.60
2017-12-21T16:17:48.576Z,7.03
2017-12-21T16:20:14.776Z,16.70
2017-12-21T16:22:41.176Z,9.90
2017-12-21T16:25:07.364Z,8.90
2017-12-21T16:27:33.550Z,12.77
2017-12-21T16:29:59.745Z,13.33
2017-12-21T16:32:25.936Z,9.60
2017-12-21T16:34:52.132Z,12.17
2017-12-21T16:37:18.366Z,11.37
2017-12-21T16:39:44.556Z,22.23
2017-12-21T16:42:10.752Z,20.03
2017-12-21T16:44:36.977Z,22.07
2017-12-21T16:47:03.160Z,18.47
2017-12-21T16:49:30.111Z,19.07
2017-12-21T16:51:57.055Z,15.23
2017-12-21T16:54:24.039Z,15.03
2017-12-21T16:56:50.511Z,15.37
2017-12-21T16:59:16.848Z,16.03
2017-12-21T17:01:43.028Z,16.53
2017-12-21T17:04:09.956Z,17.33
2017-12-21T17:06:37.643Z,22.97
2017-12-21T17:09:04.560Z,14.17
2017-12-21T17:11:30.727Z,15.03
2017-12-21T17:13:57.673Z,15.57
2017-12-21T17:16:24.597Z,18.27
2017-12-21T17:18:51.570Z,17.23
2017-12-21T17:21:18.524Z,10.60
2017-12-21T17:23:45.446Z,10.63
2017-12-21T17:26:11.622Z,14.77
2017-12-21T17:28:38.640Z,9.40
2017-12-21T17:31:04.831Z,11.53
2017-12-21T17:33:31.027Z,11.93
2017-12-21T17:35:58.016Z,21.27
2017-12-21T17:38:24.180Z,26.00
2017-12-21T17:40:50.352Z,15.47
2017-12-21T17:43:17.268Z,9.93
2017-12-21T17:45:43.587Z,17.47
2017-12-21T17:48:09.816Z,23.93
2017-12-21T17:50:36.012Z,7.47
2017-12-21T17:53:02.960Z,16.40
2017-12-21T17:55:30.146Z,14.77
2017-12-21T17:57:56.573Z,10.73
2017-12-21T18:00:22.748Z,12.67
2017-12-21T18:02:48.945Z,11.83
2017-12-21T18:05:15.128Z,10.33
2017-12-21T18:07:41.309Z,18.57
2017-12-21T18:10:07.500Z,9.00
2017-12-21T18:12:34.479Z,10.33
2017-12-21T18:15:00.661Z,8.80
2017-12-21T18:17:26.845Z,6.27
2017-12-21T18:19:53.063Z,12.13
2017-12-21T18:22:19.968Z,6.40
2017-12-21T18:24:46.164Z,8.10
2017-12-21T18:27:13.094Z,9.20
2017-12-21T18:29:40.022Z,13.87
2017-12-21T18:32:06.196Z,11.47
2017-12-21T18:34:32.406Z,14.80
2017-12-21T18:36:59.320Z,15.20
2017-12-21T18:39:25.524Z,16.73
2017-12-21T18:41:51.709Z,14.40
2017-12-21T18:44:17.868Z,16.97
2017-12-21T18:46:44.780Z,12.10
2017-12-21T18:49:11.753Z,10.40
2017-12-21T18:51:37.922Z,10.00
2017-12-21T18:54:04.840Z,10.50
2017-12-21T18:56:31.262Z,17.30
2017-12-21T18:58:57.632Z,21.33
2017-12-21T19:01:24.529Z,18.20
2017-12-21T19:03:52.420Z,14.43
2017-12-21T19:06:18.609Z,12.30
2017-12-21T19:08:44.768Z,14.17
2017-12-21T19:11:10.938Z,10.20
2017-12-21T19:13:37.184Z,18.23
2017-12-21T19:16:03.391Z,19.10
2017-12-21T19:18:29.578Z,12.20
2017-12-21T19:20:55.752Z,15.33
2017-12-21T19:23:21.904Z,13.63
2017-12-21T19:25:48.903Z,18.40
2017-12-21T19:28:15.062Z,13.50
2017-12-21T19:30:41.226Z,18.77
2017-12-21T19:33:08.369Z,22.83
2017-12-21T19:35:34.580Z,18.30
2017-12-21T19:38:00.780Z,15.93
2017-12-21T19:40:27.717Z,16.70
2017-12-21T19:42:54.626Z,16.03
2017-12-21T19:45:20.849Z,14.67
2017-12-21T19:47:47.736Z,11.83
2017-12-21T19:50:14.677Z,16.53
2017-12-21T19:52:40.848Z,11.13
2017-12-21T19:55:07.788Z,14.53
2017-12-21T19:57:34.156Z,11.90
2017-12-21T20:00:00.562Z,16.87
2017-12-21T20:02:27.515Z,26.70
2017-12-21T20:04:54.456Z,36.30
2017-12-21T20:07:20.652Z,19.67
2017-12-21T20:09:46.860Z,14.70
2017-12-21T20:12:13.044Z,18.10
2017-12-21T20:14:41.039Z,17.20
2017-12-21T20:17:08.637Z,22.23
2017-12-21T20:19:34.815Z,15.37
2017-12-21T20:22:00.993Z,14.20
2017-12-21T20:24:27.229Z,21.47
2017-12-21T20:26:53.406Z,14.37
2017-12-21T20:29:19.593Z,15.13
2017-12-21T20:31:45.788Z,12.27
2017-12-21T20:34:11.960Z,16.90
2017-12-21T20:36:38.140Z,19.83
2017-12-21T20:39:04.380Z,21.77
2017-12-21T20:41:30.561Z,15.13
2017-12-21T20:43:56.769Z,12.80
2017-12-21T20:46:22.976Z,18.57
2017-12-21T20:48:49.172Z,13.97
2017-12-21T20:51:15.332Z,19.60
2017-12-21T20:53:41.529Z,22.57
2017-12-21T20:56:07.716Z,27.47
2017-12-21T20:58:35.917Z,57.10
2017-12-21T21:01:06.173Z,34.53
2017-12-21T21:03:34.219Z,15.33
2017-12-21T21:06:01.743Z,27.50
2017-12-21T21:08:29.617Z,32.90
2017-12-21T21:10:55.810Z,23.87
2017-12-21T21:13:22.018Z,26.47
2017-12-21T21:15:48.187Z,28.80
2017-12-21T21:18:14.374Z,21.87
2017-12-21T21:20:41.300Z,24.90
2017-12-21T21:23:07.488Z,26.70
2017-12-21T21:25:34.413Z,44.10
2017-12-21T21:28:02.091Z,33.20
2017-12-21T21:30:29.058Z,35.17
2017-12-21T21:32:55.238Z,31.70
2017-12-21T21:35:21.457Z,28.27
2017-12-21T21:37:47.648Z,27.23
2017-12-21T21:40:13.846Z,38.53
2017-12-21T21:42:40.025Z,27.20
2017-12-21T21:45:06.244Z,36.13
2017-12-21T21:47:33.153Z,27.70
2017-12-21T21:49:59.322Z,28.77
2017-12-21T21:52:26.272Z,37.57
2017-12-21T21:54:53.198Z,31.13
2017-12-21T21:57:19.375Z,32.93
2017-12-21T21:59:45.658Z,38.27
2017-12-21T22:02:11.840Z,29.10
2017-12-21T22:04:38.752Z,43.57
2017-12-21T22:07:04.939Z,27.53
2017-12-21T22:09:31.104Z,32.47
2017-12-21T22:11:57.288Z,35.07
2017-12-21T22:14:23.497Z,31.47
2017-12-21T22:16:50.627Z,36.60
2017-12-21T22:19:16.804Z,37.33
2017-12-21T22:21:43.749Z,33.90
2017-12-21T22:24:10.664Z,39.37
2017-12-21T22:26:36.847Z,37.67
2017-12-21T22:29:03.776Z,46.23
2017-12-21T22:31:29.937Z,44.33
2017-12-21T22:33:56.853Z,39.07
2017-12-21T22:36:23.069Z,49.30
2017-12-21T22:38:49.241Z,42.83
2017-12-21T22:41:16.160Z,51.60
2017-12-21T22:43:42.352Z,51.53
2017-12-21T22:46:08.532Z,52.83
2017-12-21T22:48:34.709Z,64.67
2017-12-21T22:51:01.647Z,48.30
2017-12-21T22:53:28.563Z,51.50
2017-12-21T22:55:54.741Z,54.47
2017-12-21T22:58:20.946Z,53.53
2017-12-21T23:00:47.201Z,47.67
2017-12-21T23:03:13.515Z,44.83
2017-12-21T23:05:39.717Z,48.37
2017-12-21T23:08:05.880Z,60.87
2017-12-21T23:10:32.052Z,53.17
2017-12-21T23:12:58.236Z,58.27
2017-12-21T23:15:24.397Z,48.73
2017-12-21T23:17:51.308Z,53.00
2017-12-21T23:20:17.517Z,62.03
2017-12-21T23:22:43.688Z,59.20
2017-12-21T23:25:09.880Z,73.70
2017-12-21T23:27:36.068Z,54.20
2017-12-21T23:30:02.262Z,57.70
2017-12-21T23:32:28.437Z,56.77
2017-12-21T23:34:55.393Z,59.47
2017-12-21T23:37:22.335Z,58.40
2017-12-21T23:39:48.509Z,47.40
2017-12-21T23:42:14.717Z,61.27
2017-12-21T23:44:41.631Z,60.03
2017-12-21T23:47:07.824Z,69.70
2017-12-21T23:49:34.054Z,66.20
2017-12-21T23:52:00.212Z,77.00
2017-12-21T23:54:26.377Z,67.10
2017-12-21T23:56:52.573Z,68.27
2017-12-21T23:59:18.752Z,61.00
